Aérodrome :
LOGIN :

S'inscrire | Disclaimer

   EN    FR    IT 

 










Légende :    VFR   VFR Marginal   IFR   IFR Intensif   IFR Très Intensif
Visi : 
Plafond : 
>= 8 km
>= 3000ft
5 à 8 km
1000 à 3000 ft
1500m à 5 km
500 à 1000 ft
800 à 1500m
200 à 500 ft
< 800m
< 200 ft
Symboles :   Orages  Brouillard  Fortes neiges  Fortes précipitations  Vent > 20 kt
SIGMETs :   Divers  Orages  Givrage  Turbulence  Onde Orograph.  Cendres Volcan.






- Altitude de l'aérodrome : 37 ft
- Code IATA : OLB


LIEO - Olbia Costa Smeralda

DERNIER METAR :
  • 190450Z 21003KT 160V260 CAVOK 23/12 Q1017

METARs EXPIRÉS :
  • 190420Z VRB02KT CAVOK 22/12 Q1016
  • 190350Z VRB01KT CAVOK 21/14 Q1016
  • 190320Z VRB01KT CAVOK 21/14 Q1016
  • 190250Z VRB02KT CAVOK 21/15 Q1016
  • 190220Z VRB01KT CAVOK 22/14 Q1016
  • 190150Z 28004KT CAVOK 23/14 Q1016
  • 190120Z VRB01KT CAVOK 23/14 Q1017
  • 190050Z 23003KT CAVOK 24/14 Q1017
  • 190020Z 24003KT 210V280 CAVOK 24/15 Q1017

TAF TAF LIEO
Valide du 19 à 00h jusqu'au 20 à 00h UTC


182300Z 1900/1924 VRB05KT CAVOK
BECMG 1909/1911 05012KT
BECMG 1915/1917 26012KT



MET'MAP, la Météo Aéronautique d'un coup d'oeil ! - Copyright ORBIFLY Décembre 2007 - Disclaimer

ORBIFLY MET'MAP TEAM :

Programmation & Développement : Alexandra Zaïnal
Sur une idée originale de : Baudouin d'Aumeries
Soutien technique & logistique : Manuel Goepfert
Assistance : Marc-Olivier Méhu




SOURCES & CREDITS :

   NOAA